<?xml version="1.0" encoding="UTF-8" standalone="no" ?>
<gpx xmlns="http://www.topografix.com/GPX/1/1" xmlns:xsi="http://www.w3.org/2001/XMLSchema-instance" xsi:schemaLocation="http://www.topografix.com/GPX/1/1 http://www.topografix.com/GPX/1/1/gpx.xsd" version="1.1" creator="VisuGPX - https://www.visugpx.com">
  <metadata>
    <name>Angervillier-Labate</name>
    <desc><![CDATA[17,7 km, en forêt avec peu de goudron.
Des raccourcis possibles]]></desc>
  </metadata>
  <trk>
    <name><![CDATA[150803Angervillier-Labate]]></name>
    <desc><![CDATA[150308Angervilliers-LaBate Track imported from:150803Angervillier-Labate]]></desc>
    <trkseg>
      <trkpt lat="48.59193" lon="2.06469">
        <ele>-236.8296</ele>
        <time>2015-07-31T08:35:08Z</time>
      </trkpt>
      <trkpt lat="48.59367" lon="2.06415">
        <ele>-236.8296</ele>
        <time>2015-07-31T08:35:10Z</time>
      </trkpt>
      <trkpt lat="48.5953" lon="2.06214">
        <ele>-236.8296</ele>
        <time>2015-07-31T08:35:11Z</time>
      </trkpt>
      <trkpt lat="48.5959" lon="2.05708">
        <ele>-236.8296</ele>
        <time>2015-07-31T08:35:14Z</time>
      </trkpt>
      <trkpt lat="48.59883" lon="2.053">
        <ele>-236.8296</ele>
        <time>2015-07-31T08:35:16Z</time>
      </trkpt>
      <trkpt lat="48.59927" lon="2.04968">
        <ele>-236.8296</ele>
        <time>2015-07-31T08:35:26Z</time>
      </trkpt>
      <trkpt lat="48.60063" lon="2.05055">
        <ele>-236.8296</ele>
        <time>2015-07-31T08:35:30Z</time>
      </trkpt>
      <trkpt lat="48.60291" lon="2.04762">
        <ele>-236.8296</ele>
        <time>2015-07-31T08:35:34Z</time>
      </trkpt>
      <trkpt lat="48.60433" lon="2.04734">
        <ele>-236.8296</ele>
        <time>2015-07-31T08:35:38Z</time>
      </trkpt>
      <trkpt lat="48.60389" lon="2.045">
        <ele>-236.8296</ele>
        <time>2015-07-31T08:35:40Z</time>
      </trkpt>
      <trkpt lat="48.60378" lon="2.04229">
        <ele>-236.8296</ele>
        <time>2015-07-31T08:35:43Z</time>
      </trkpt>
      <trkpt lat="48.60144" lon="2.0418">
        <ele>-236.8296</ele>
        <time>2015-07-31T08:35:45Z</time>
      </trkpt>
      <trkpt lat="48.60177" lon="2.04098">
        <ele>-236.8296</ele>
        <time>2015-07-31T08:35:46Z</time>
      </trkpt>
      <trkpt lat="48.60182" lon="2.04027">
        <ele>-236.8296</ele>
        <time>2015-07-31T08:35:48Z</time>
      </trkpt>
      <trkpt lat="48.60204" lon="2.03951">
        <ele>-236.8296</ele>
        <time>2015-07-31T08:35:49Z</time>
      </trkpt>
      <trkpt lat="48.60237" lon="2.03886">
        <ele>-236.8296</ele>
        <time>2015-07-31T08:35:50Z</time>
      </trkpt>
      <trkpt lat="48.6009" lon="2.03783">
        <ele>-236.8296</ele>
        <time>2015-07-31T08:35:52Z</time>
      </trkpt>
      <trkpt lat="48.6009" lon="2.03685">
        <ele>-236.8296</ele>
        <time>2015-07-31T08:35:53Z</time>
      </trkpt>
      <trkpt lat="48.60074" lon="2.0363">
        <ele>-236.8296</ele>
        <time>2015-07-31T08:36:57Z</time>
      </trkpt>
      <trkpt lat="48.60003" lon="2.03522">
        <ele>-236.8296</ele>
        <time>2015-07-31T08:36:59Z</time>
      </trkpt>
      <trkpt lat="48.59927" lon="2.03413">
        <ele>-236.8296</ele>
        <time>2015-07-31T08:37:04Z</time>
      </trkpt>
      <trkpt lat="48.59916" lon="2.03353">
        <ele>-236.8296</ele>
        <time>2015-07-31T08:37:05Z</time>
      </trkpt>
      <trkpt lat="48.60036" lon="2.03407">
        <ele>-236.8296</ele>
        <time>2015-07-31T08:37:07Z</time>
      </trkpt>
      <trkpt lat="48.60095" lon="2.03391">
        <ele>-236.8296</ele>
        <time>2015-07-31T08:37:08Z</time>
      </trkpt>
      <trkpt lat="48.60182" lon="2.03424">
        <ele>-236.8296</ele>
        <time>2015-07-31T08:37:10Z</time>
      </trkpt>
      <trkpt lat="48.60248" lon="2.03228">
        <ele>-236.8296</ele>
        <time>2015-07-31T08:37:14Z</time>
      </trkpt>
      <trkpt lat="48.60025" lon="2.03097">
        <ele>-236.8296</ele>
        <time>2015-07-31T08:37:16Z</time>
      </trkpt>
      <trkpt lat="48.60215" lon="2.02722">
        <ele>-236.8296</ele>
        <time>2015-07-31T08:37:20Z</time>
      </trkpt>
      <trkpt lat="48.60405" lon="2.02858">
        <ele>-236.8296</ele>
        <time>2015-07-31T08:37:22Z</time>
      </trkpt>
      <trkpt lat="48.6046" lon="2.0276">
        <ele>-236.8296</ele>
        <time>2015-07-31T08:37:24Z</time>
      </trkpt>
      <trkpt lat="48.60558" lon="2.02782">
        <ele>-236.8296</ele>
        <time>2015-07-31T08:37:33Z</time>
      </trkpt>
      <trkpt lat="48.60639" lon="2.02853">
        <ele>-236.8296</ele>
        <time>2015-07-31T08:37:35Z</time>
      </trkpt>
      <trkpt lat="48.60661" lon="2.02777">
        <ele>-236.8296</ele>
        <time>2015-07-31T08:37:37Z</time>
      </trkpt>
      <trkpt lat="48.60661" lon="2.027">
        <ele>-236.8296</ele>
        <time>2015-07-31T08:37:38Z</time>
      </trkpt>
      <trkpt lat="48.60666" lon="2.02586">
        <ele>-236.8296</ele>
        <time>2015-07-31T08:37:39Z</time>
      </trkpt>
      <trkpt lat="48.60612" lon="2.02418">
        <ele>-236.8296</ele>
        <time>2015-07-31T08:37:41Z</time>
      </trkpt>
      <trkpt lat="48.60677" lon="2.02282">
        <ele>-236.8296</ele>
        <time>2015-07-31T08:37:43Z</time>
      </trkpt>
      <trkpt lat="48.60601" lon="2.02097">
        <ele>-236.8296</ele>
        <time>2015-07-31T08:37:45Z</time>
      </trkpt>
      <trkpt lat="48.60514" lon="2.02015">
        <ele>-236.8296</ele>
        <time>2015-07-31T08:37:47Z</time>
      </trkpt>
      <trkpt lat="48.60405" lon="2.0189">
        <ele>-236.8296</ele>
        <time>2015-07-31T08:37:49Z</time>
      </trkpt>
      <trkpt lat="48.60362" lon="2.01825">
        <ele>-236.8296</ele>
        <time>2015-07-31T08:37:50Z</time>
      </trkpt>
      <trkpt lat="48.6034" lon="2.01738">
        <ele>-236.8296</ele>
        <time>2015-07-31T08:37:51Z</time>
      </trkpt>
      <trkpt lat="48.6015" lon="2.01569">
        <ele>-236.8296</ele>
        <time>2015-07-31T08:37:59Z</time>
      </trkpt>
      <trkpt lat="48.60068" lon="2.01471">
        <ele>-236.8296</ele>
        <time>2015-07-31T08:38:01Z</time>
      </trkpt>
      <trkpt lat="48.59965" lon="2.01395">
        <ele>-236.8296</ele>
        <time>2015-07-31T08:38:02Z</time>
      </trkpt>
      <trkpt lat="48.59938" lon="2.01341">
        <ele>-236.8296</ele>
        <time>2015-07-31T08:38:03Z</time>
      </trkpt>
      <trkpt lat="48.59807" lon="2.01341">
        <ele>-236.8296</ele>
        <time>2015-07-31T08:38:04Z</time>
      </trkpt>
      <trkpt lat="48.59671" lon="2.01232">
        <ele>-236.8296</ele>
        <time>2015-07-31T08:38:07Z</time>
      </trkpt>
      <trkpt lat="48.59622" lon="2.01287">
        <ele>-236.8296</ele>
        <time>2015-07-31T08:38:09Z</time>
      </trkpt>
      <trkpt lat="48.59644" lon="2.0139">
        <ele>-236.8296</ele>
        <time>2015-07-31T08:38:13Z</time>
      </trkpt>
      <trkpt lat="48.59677" lon="2.01455">
        <ele>-236.8296</ele>
        <time>2015-07-31T08:38:15Z</time>
      </trkpt>
      <trkpt lat="48.59791" lon="2.01618">
        <ele>-236.8296</ele>
        <time>2015-07-31T08:38:18Z</time>
      </trkpt>
      <trkpt lat="48.59862" lon="2.0176">
        <ele>-236.8296</ele>
        <time>2015-07-31T08:38:19Z</time>
      </trkpt>
      <trkpt lat="48.59845" lon="2.01868">
        <ele>-236.8296</ele>
        <time>2015-07-31T08:38:21Z</time>
      </trkpt>
      <trkpt lat="48.59851" lon="2.01939">
        <ele>-236.8296</ele>
        <time>2015-07-31T08:38:22Z</time>
      </trkpt>
      <trkpt lat="48.5978" lon="2.02053">
        <ele>-236.8296</ele>
        <time>2015-07-31T08:38:23Z</time>
      </trkpt>
      <trkpt lat="48.5972" lon="2.02102">
        <ele>-236.8296</ele>
        <time>2015-07-31T08:38:25Z</time>
      </trkpt>
      <trkpt lat="48.59785" lon="2.0214">
        <ele>-236.8296</ele>
        <time>2015-07-31T08:38:26Z</time>
      </trkpt>
      <trkpt lat="48.5984" lon="2.02113">
        <ele>-236.8296</ele>
        <time>2015-07-31T08:38:27Z</time>
      </trkpt>
      <trkpt lat="48.59862" lon="2.02178">
        <ele>-236.8296</ele>
        <time>2015-07-31T08:38:28Z</time>
      </trkpt>
      <trkpt lat="48.59921" lon="2.02211">
        <ele>-236.8296</ele>
        <time>2015-07-31T08:38:38Z</time>
      </trkpt>
      <trkpt lat="48.59856" lon="2.02352">
        <ele>-236.8296</ele>
        <time>2015-07-31T08:38:44Z</time>
      </trkpt>
      <trkpt lat="48.59791" lon="2.02352">
        <ele>-236.8296</ele>
        <time>2015-07-31T08:38:46Z</time>
      </trkpt>
      <trkpt lat="48.59747" lon="2.02249">
        <ele>-236.8296</ele>
        <time>2015-07-31T08:38:47Z</time>
      </trkpt>
      <trkpt lat="48.59709" lon="2.022">
        <ele>-236.8296</ele>
        <time>2015-07-31T08:38:48Z</time>
      </trkpt>
      <trkpt lat="48.59628" lon="2.02178">
        <ele>-236.8296</ele>
        <time>2015-07-31T08:38:50Z</time>
      </trkpt>
      <trkpt lat="48.5966" lon="2.02271">
        <ele>-236.8296</ele>
        <time>2015-07-31T08:38:51Z</time>
      </trkpt>
      <trkpt lat="48.59644" lon="2.0245">
        <ele>-236.8296</ele>
        <time>2015-07-31T08:38:53Z</time>
      </trkpt>
      <trkpt lat="48.59573" lon="2.02412">
        <ele>-236.8296</ele>
        <time>2015-07-31T08:38:55Z</time>
      </trkpt>
      <trkpt lat="48.59601" lon="2.02548">
        <ele>-236.8296</ele>
        <time>2015-07-31T08:38:57Z</time>
      </trkpt>
      <trkpt lat="48.59562" lon="2.0276">
        <ele>-236.8296</ele>
        <time>2015-07-31T08:38:58Z</time>
      </trkpt>
      <trkpt lat="48.59769" lon="2.03679">
        <ele>-236.8296</ele>
        <time>2015-07-31T08:39:15Z</time>
      </trkpt>
      <trkpt lat="48.59378" lon="2.03571">
        <ele>-236.8296</ele>
        <time>2015-07-31T08:39:17Z</time>
      </trkpt>
      <trkpt lat="48.59291" lon="2.03554">
        <ele>-236.8296</ele>
        <time>2015-07-31T08:39:18Z</time>
      </trkpt>
      <trkpt lat="48.59193" lon="2.03598">
        <ele>-236.8296</ele>
        <time>2015-07-31T08:39:21Z</time>
      </trkpt>
      <trkpt lat="48.59122" lon="2.03625">
        <ele>-236.8296</ele>
        <time>2015-07-31T08:39:22Z</time>
      </trkpt>
      <trkpt lat="48.5903" lon="2.03614">
        <ele>-236.8296</ele>
        <time>2015-07-31T08:39:23Z</time>
      </trkpt>
      <trkpt lat="48.58953" lon="2.03391">
        <ele>-236.8296</ele>
        <time>2015-07-31T08:39:25Z</time>
      </trkpt>
      <trkpt lat="48.5885" lon="2.03473">
        <ele>-236.8296</ele>
        <time>2015-07-31T08:39:26Z</time>
      </trkpt>
      <trkpt lat="48.5891" lon="2.03679">
        <ele>-236.8296</ele>
        <time>2015-07-31T08:39:27Z</time>
      </trkpt>
      <trkpt lat="48.58643" lon="2.04229">
        <ele>-236.8296</ele>
        <time>2015-07-31T08:39:46Z</time>
      </trkpt>
      <trkpt lat="48.5897" lon="2.04386">
        <ele>-236.8296</ele>
        <time>2015-07-31T08:39:48Z</time>
      </trkpt>
      <trkpt lat="48.58894" lon="2.04957">
        <ele>-236.8296</ele>
        <time>2015-07-31T08:39:50Z</time>
      </trkpt>
      <trkpt lat="48.58834" lon="2.04952">
        <ele>-236.8296</ele>
        <time>2015-07-31T08:40:06Z</time>
      </trkpt>
      <trkpt lat="48.58801" lon="2.04984">
        <ele>-236.8296</ele>
        <time>2015-07-31T08:40:09Z</time>
      </trkpt>
      <trkpt lat="48.58769" lon="2.05017">
        <ele>-236.8296</ele>
        <time>2015-07-31T08:40:10Z</time>
      </trkpt>
      <trkpt lat="48.58736" lon="2.05033">
        <ele>-236.8296</ele>
        <time>2015-07-31T08:40:11Z</time>
      </trkpt>
      <trkpt lat="48.58671" lon="2.05033">
        <ele>-236.8296</ele>
        <time>2015-07-31T08:40:12Z</time>
      </trkpt>
      <trkpt lat="48.58622" lon="2.05023">
        <ele>-236.8296</ele>
        <time>2015-07-31T08:40:17Z</time>
      </trkpt>
      <trkpt lat="48.58681" lon="2.04729">
        <ele>-236.8296</ele>
        <time>2015-07-31T08:40:19Z</time>
      </trkpt>
      <trkpt lat="48.58698" lon="2.04707">
        <ele>-236.8296</ele>
        <time>2015-07-31T08:40:21Z</time>
      </trkpt>
      <trkpt lat="48.58633" lon="2.04604">
        <ele>-236.8296</ele>
        <time>2015-07-31T08:40:22Z</time>
      </trkpt>
      <trkpt lat="48.58535" lon="2.04533">
        <ele>-236.8296</ele>
        <time>2015-07-31T08:40:23Z</time>
      </trkpt>
      <trkpt lat="48.58464" lon="2.04669">
        <ele>-236.8296</ele>
        <time>2015-07-31T08:42:27Z</time>
      </trkpt>
      <trkpt lat="48.5842" lon="2.04794">
        <ele>-236.8296</ele>
        <time>2015-07-31T08:42:29Z</time>
      </trkpt>
      <trkpt lat="48.58361" lon="2.05066">
        <ele>-236.8296</ele>
        <time>2015-07-31T08:42:30Z</time>
      </trkpt>
      <trkpt lat="48.58377" lon="2.05175">
        <ele>-236.8296</ele>
        <time>2015-07-31T08:42:32Z</time>
      </trkpt>
      <trkpt lat="48.58366" lon="2.05251">
        <ele>-236.8296</ele>
        <time>2015-07-31T08:42:33Z</time>
      </trkpt>
      <trkpt lat="48.58312" lon="2.05507">
        <ele>-236.8296</ele>
        <time>2015-07-31T08:42:37Z</time>
      </trkpt>
      <trkpt lat="48.5829" lon="2.05773">
        <ele>-236.8296</ele>
        <time>2015-07-31T08:42:39Z</time>
      </trkpt>
      <trkpt lat="48.58246" lon="2.05898">
        <ele>-236.8296</ele>
        <time>2015-07-31T08:42:41Z</time>
      </trkpt>
      <trkpt lat="48.58219" lon="2.0611">
        <ele>-236.8296</ele>
        <time>2015-07-31T08:42:42Z</time>
      </trkpt>
      <trkpt lat="48.58051" lon="2.06643">
        <ele>-236.8296</ele>
        <time>2015-07-31T08:42:48Z</time>
      </trkpt>
      <trkpt lat="48.57909" lon="2.06904">
        <ele>-236.8296</ele>
        <time>2015-07-31T08:42:50Z</time>
      </trkpt>
      <trkpt lat="48.58034" lon="2.07018">
        <ele>-236.8296</ele>
        <time>2015-07-31T08:42:52Z</time>
      </trkpt>
      <trkpt lat="48.58132" lon="2.07046">
        <ele>-236.8296</ele>
        <time>2015-07-31T08:42:53Z</time>
      </trkpt>
      <trkpt lat="48.58208" lon="2.0716">
        <ele>-236.8296</ele>
        <time>2015-07-31T08:42:55Z</time>
      </trkpt>
      <trkpt lat="48.5829" lon="2.07209">
        <ele>-236.8296</ele>
        <time>2015-07-31T08:42:56Z</time>
      </trkpt>
      <trkpt lat="48.58453" lon="2.07274">
        <ele>-236.8296</ele>
        <time>2015-07-31T08:42:58Z</time>
      </trkpt>
      <trkpt lat="48.58464" lon="2.07307">
        <ele>-236.8296</ele>
        <time>2015-07-31T08:42:59Z</time>
      </trkpt>
      <trkpt lat="48.58502" lon="2.07274">
        <ele>-236.8296</ele>
        <time>2015-07-31T08:43:05Z</time>
      </trkpt>
      <trkpt lat="48.58562" lon="2.071">
        <ele>-236.8296</ele>
        <time>2015-07-31T08:43:07Z</time>
      </trkpt>
      <trkpt lat="48.58643" lon="2.06893">
        <ele>-236.8296</ele>
        <time>2015-07-31T08:43:10Z</time>
      </trkpt>
      <trkpt lat="48.58709" lon="2.06763">
        <ele>-236.8296</ele>
        <time>2015-07-31T08:43:11Z</time>
      </trkpt>
      <trkpt lat="48.58654" lon="2.06741">
        <ele>-236.8296</ele>
        <time>2015-07-31T08:43:12Z</time>
      </trkpt>
      <trkpt lat="48.58687" lon="2.06725">
        <ele>-236.8296</ele>
        <time>2015-07-31T08:43:13Z</time>
      </trkpt>
      <trkpt lat="48.58823" lon="2.0661">
        <ele>-236.8296</ele>
        <time>2015-07-31T08:43:15Z</time>
      </trkpt>
      <trkpt lat="48.58915" lon="2.06545">
        <ele>-236.8296</ele>
        <time>2015-07-31T08:43:17Z</time>
      </trkpt>
      <trkpt lat="48.58975" lon="2.06529">
        <ele>-236.8296</ele>
        <time>2015-07-31T08:43:20Z</time>
      </trkpt>
      <trkpt lat="48.59035" lon="2.06485">
        <ele>-236.8296</ele>
        <time>2015-07-31T08:43:21Z</time>
      </trkpt>
      <trkpt lat="48.59095" lon="2.06491">
        <ele>-236.8296</ele>
        <time>2015-07-31T09:11:56Z</time>
      </trkpt>
      <trkpt lat="48.59106" lon="2.06453">
        <ele>-236.8296</ele>
        <time>2015-07-31T09:11:58Z</time>
      </trkpt>
      <trkpt lat="48.59149" lon="2.06447">
        <ele>-236.8296</ele>
        <time>2015-07-31T09:12:02Z</time>
      </trkpt>
    </trkseg>
  </trk>
</gpx>